UAL201 PGUM-PTPN
Flight info
| Callsign | UAL201 |
|---|---|
| Flight time | 2h 13m |
| Altitude | 35000 |
| Route | FIBSS A222 KRONK BIRUQ |
| Aircraft | B738/M-SDE2E3FGHIRWXY/LB1 |
Departure
| Time | 2026-04-16 10:38 |
|---|---|
| Airport | Antonio B. Won Pat International Airport (PGUM) |
Arrival
| Time | 2026-04-16 12:52 |
|---|---|
| Airport | Pohnpei International Airport (PTPN) |
| Time | Latitude | Longitude | Altitude | Speed | Heading |
|---|---|---|---|---|---|
| 2026-04-16 10:25 | 13.49109 | 144.80411 | 283 ft | 0 kts | 332° |
| 2026-04-16 10:32 | 13.49096 | 144.80418 | 290 ft | 4 kts | 332° |
| 2026-04-16 10:32 | 13.49072 | 144.80431 | 292 ft | 4 kts | 335° |
| 2026-04-16 10:32 | 13.49047 | 144.80441 | 287 ft | 4 kts | 343° |
| 2026-04-16 10:32 | 13.49022 | 144.80445 | 287 ft | 4 kts | 18° |
| 2026-04-16 10:33 | 13.49011 | 144.80439 | 290 ft | 1 kts | 60° |
| 2026-04-16 10:35 | 13.49012 | 144.80442 | 289 ft | 2 kts | 60° |
| 2026-04-16 10:35 | 13.49029 | 144.80472 | 286 ft | 8 kts | 60° |
| 2026-04-16 10:35 | 13.49064 | 144.80537 | 288 ft | 13 kts | 62° |
| 2026-04-16 10:35 | 13.49114 | 144.80633 | 291 ft | 18 kts | 62° |
| 2026-04-16 10:36 | 13.49184 | 144.80767 | 295 ft | 24 kts | 61° |
| 2026-04-16 10:36 | 13.49265 | 144.80919 | 302 ft | 23 kts | 64° |
| 2026-04-16 10:36 | 13.49210 | 144.80986 | 302 ft | 16 kts | 198° |
| 2026-04-16 10:36 | 13.49106 | 144.80946 | 300 ft | 16 kts | 196° |
| 2026-04-16 10:37 | 13.49029 | 144.80884 | 297 ft | 2 kts | 244° |
| 2026-04-16 10:37 | 13.49021 | 144.80868 | 296 ft | 15 kts | 244° |
| 2026-04-16 10:37 | 13.48875 | 144.80550 | 291 ft | 82 kts | 244° |
| 2026-04-16 10:37 | 13.48548 | 144.79835 | 269 ft | 138 kts | 245° |
| 2026-04-16 10:38 | 13.48093 | 144.78835 | 571 ft | 161 kts | 243° |
| 2026-04-16 10:38 | 13.47642 | 144.77848 | 1558 ft | 140 kts | 245° |
| 2026-04-16 10:38 | 13.47122 | 144.77067 | 2479 ft | 139 kts | 222° |
| 2026-04-16 10:38 | 13.46047 | 144.76799 | 2748 ft | 189 kts | 183° |
| 2026-04-16 10:39 | 13.44726 | 144.77375 | 2965 ft | 233 kts | 149° |
| 2026-04-16 10:39 | 13.43686 | 144.78807 | 3149 ft | 269 kts | 120° |
| 2026-04-16 10:39 | 13.42958 | 144.80661 | 3390 ft | 292 kts | 116° |
| 2026-04-16 10:39 | 13.42215 | 144.82669 | 3844 ft | 304 kts | 117° |
| 2026-04-16 10:40 | 13.41410 | 144.84669 | 4661 ft | 303 kts | 118° |
| 2026-04-16 10:40 | 13.40581 | 144.86668 | 5326 ft | 307 kts | 118° |
| 2026-04-16 10:40 | 13.39735 | 144.88695 | 5992 ft | 310 kts | 118° |
| 2026-04-16 10:40 | 13.38890 | 144.90736 | 6671 ft | 311 kts | 118° |
| 2026-04-16 10:41 | 13.38043 | 144.92789 | 7362 ft | 313 kts | 118° |
| 2026-04-16 10:41 | 13.37192 | 144.94857 | 8025 ft | 316 kts | 118° |
| 2026-04-16 10:41 | 13.36335 | 144.96942 | 8708 ft | 318 kts | 118° |
| 2026-04-16 10:41 | 13.35471 | 144.99046 | 9414 ft | 321 kts | 118° |
| 2026-04-16 10:42 | 13.34602 | 145.01166 | 10030 ft | 324 kts | 118° |
| 2026-04-16 10:42 | 13.33716 | 145.03322 | 10446 ft | 336 kts | 118° |
| 2026-04-16 10:42 | 13.32777 | 145.05598 | 10581 ft | 356 kts | 118° |
| 2026-04-16 10:42 | 13.31787 | 145.08001 | 10789 ft | 372 kts | 117° |
| 2026-04-16 10:43 | 13.30773 | 145.10475 | 11253 ft | 378 kts | 117° |
| 2026-04-16 10:43 | 13.29752 | 145.12975 | 11851 ft | 380 kts | 117° |
| 2026-04-16 10:43 | 13.28729 | 145.15483 | 12468 ft | 382 kts | 117° |
| 2026-04-16 10:43 | 13.27699 | 145.18005 | 13066 ft | 385 kts | 117° |
| 2026-04-16 10:44 | 13.26658 | 145.20548 | 13640 ft | 388 kts | 117° |
| 2026-04-16 10:44 | 13.25606 | 145.23115 | 14131 ft | 392 kts | 117° |
| 2026-04-16 10:44 | 13.24545 | 145.25703 | 14610 ft | 396 kts | 116° |
| 2026-04-16 10:44 | 13.23474 | 145.28315 | 15180 ft | 397 kts | 116° |
| 2026-04-16 10:45 | 13.22398 | 145.30939 | 15700 ft | 401 kts | 116° |
| 2026-04-16 10:45 | 13.21307 | 145.33595 | 16153 ft | 406 kts | 116° |
| 2026-04-16 10:45 | 13.20206 | 145.36274 | 16685 ft | 409 kts | 116° |
| 2026-04-16 10:45 | 13.19095 | 145.38977 | 17170 ft | 413 kts | 116° |
| 2026-04-16 10:46 | 13.17975 | 145.41701 | 17622 ft | 417 kts | 116° |
| 2026-04-16 10:46 | 13.16846 | 145.44449 | 18129 ft | 419 kts | 115° |
| 2026-04-16 10:46 | 13.15713 | 145.47204 | 18531 ft | 422 kts | 115° |
| 2026-04-16 10:46 | 13.14565 | 145.49998 | 18884 ft | 426 kts | 116° |
| 2026-04-16 10:47 | 13.13414 | 145.52795 | 19391 ft | 426 kts | 115° |
| 2026-04-16 10:47 | 13.12261 | 145.55596 | 19886 ft | 426 kts | 116° |
| 2026-04-16 10:47 | 13.11100 | 145.58415 | 20175 ft | 433 kts | 116° |
| 2026-04-16 10:47 | 13.09925 | 145.61263 | 20623 ft | 434 kts | 116° |
| 2026-04-16 10:48 | 13.08765 | 145.64077 | 21100 ft | 434 kts | 116° |
| 2026-04-16 10:48 | 13.07585 | 145.66939 | 21410 ft | 439 kts | 116° |
| 2026-04-16 10:48 | 13.06388 | 145.69841 | 21797 ft | 441 kts | 116° |
| 2026-04-16 10:48 | 13.05194 | 145.72733 | 22309 ft | 440 kts | 116° |
| 2026-04-16 10:49 | 13.03993 | 145.75640 | 22659 ft | 444 kts | 116° |
| 2026-04-16 10:49 | 13.02783 | 145.78570 | 22992 ft | 447 kts | 116° |
| 2026-04-16 10:49 | 13.01580 | 145.81485 | 23563 ft | 442 kts | 116° |
| 2026-04-16 10:49 | 13.00379 | 145.84393 | 23910 ft | 444 kts | 116° |
| 2026-04-16 10:50 | 12.99169 | 145.87324 | 24123 ft | 449 kts | 116° |
| 2026-04-16 10:50 | 12.97949 | 145.90273 | 24430 ft | 450 kts | 116° |
| 2026-04-16 10:50 | 12.96724 | 145.93231 | 24713 ft | 452 kts | 116° |
| 2026-04-16 10:50 | 12.95489 | 145.96212 | 24985 ft | 455 kts | 116° |
| 2026-04-16 10:51 | 12.94234 | 145.99239 | 25322 ft | 455 kts | 116° |
| 2026-04-16 10:51 | 12.93014 | 146.02187 | 25628 ft | 457 kts | 116° |
| 2026-04-16 10:51 | 12.91767 | 146.05195 | 25868 ft | 460 kts | 116° |
| 2026-04-16 10:51 | 12.90518 | 146.08209 | 26221 ft | 459 kts | 116° |
| 2026-04-16 10:52 | 12.89270 | 146.11219 | 26541 ft | 460 kts | 117° |
| 2026-04-16 10:52 | 12.88016 | 146.14242 | 26764 ft | 463 kts | 117° |
| 2026-04-16 10:52 | 12.86752 | 146.17286 | 27019 ft | 465 kts | 116° |
| 2026-04-16 10:52 | 12.85486 | 146.20338 | 27299 ft | 466 kts | 116° |
| 2026-04-16 10:53 | 12.84215 | 146.23398 | 27560 ft | 468 kts | 116° |
| 2026-04-16 10:53 | 12.82939 | 146.26470 | 27814 ft | 469 kts | 116° |
| 2026-04-16 10:53 | 12.81660 | 146.29547 | 28070 ft | 471 kts | 117° |
| 2026-04-16 10:53 | 12.80374 | 146.32641 | 28311 ft | 472 kts | 117° |
| 2026-04-16 10:54 | 12.79085 | 146.35739 | 28565 ft | 473 kts | 117° |
| 2026-04-16 10:54 | 12.77793 | 146.38845 | 28795 ft | 475 kts | 117° |
| 2026-04-16 10:54 | 12.76495 | 146.41963 | 29025 ft | 477 kts | 117° |
| 2026-04-16 10:54 | 12.75192 | 146.45091 | 29241 ft | 478 kts | 117° |
| 2026-04-16 10:55 | 12.73884 | 146.48232 | 29459 ft | 480 kts | 117° |
| 2026-04-16 10:55 | 12.72572 | 146.51379 | 29684 ft | 481 kts | 117° |
| 2026-04-16 10:55 | 12.71256 | 146.54537 | 29876 ft | 483 kts | 117° |
| 2026-04-16 10:55 | 12.69937 | 146.57700 | 30067 ft | 484 kts | 117° |
| 2026-04-16 10:56 | 12.68616 | 146.60865 | 30278 ft | 484 kts | 117° |
| 2026-04-16 10:56 | 12.67294 | 146.64035 | 30491 ft | 484 kts | 117° |
| 2026-04-16 10:56 | 12.65969 | 146.67207 | 30694 ft | 485 kts | 117° |
| 2026-04-16 10:56 | 12.64644 | 146.70381 | 30921 ft | 484 kts | 117° |
| 2026-04-16 10:57 | 12.63321 | 146.73548 | 31222 ft | 482 kts | 117° |
| 2026-04-16 10:57 | 12.62006 | 146.76696 | 31563 ft | 479 kts | 117° |
| 2026-04-16 10:57 | 12.60700 | 146.79823 | 31901 ft | 477 kts | 117° |
| 2026-04-16 10:57 | 12.59399 | 146.82934 | 32212 ft | 475 kts | 117° |
| 2026-04-16 10:58 | 12.58103 | 146.86031 | 32549 ft | 472 kts | 117° |
| 2026-04-16 10:58 | 12.56816 | 146.89105 | 32950 ft | 468 kts | 117° |
| 2026-04-16 10:58 | 12.55538 | 146.92156 | 33310 ft | 465 kts | 117° |
| 2026-04-16 10:58 | 12.54265 | 146.95195 | 33613 ft | 464 kts | 117° |
| 2026-04-16 10:59 | 12.53010 | 146.98189 | 33898 ft | 463 kts | 117° |
| 2026-04-16 10:59 | 12.51742 | 147.01211 | 34149 ft | 462 kts | 117° |
| 2026-04-16 10:59 | 12.50475 | 147.04231 | 34378 ft | 461 kts | 116° |
| 2026-04-16 10:59 | 12.49212 | 147.07243 | 34628 ft | 460 kts | 116° |
| 2026-04-16 11:00 | 12.47950 | 147.10246 | 34863 ft | 459 kts | 116° |
| 2026-04-16 11:00 | 12.47095 | 147.12277 | 35016 ft | 459 kts | 117° |
| 2026-04-16 11:00 | 12.45435 | 147.16231 | 35413 ft | 456 kts | 117° |
| 2026-04-16 11:00 | 12.44608 | 147.18204 | 35579 ft | 455 kts | 116° |
| 2026-04-16 11:01 | 12.43358 | 147.21179 | 35737 ft | 456 kts | 116° |
| 2026-04-16 11:01 | 12.42108 | 147.24152 | 35969 ft | 454 kts | 116° |
| 2026-04-16 11:01 | 12.40865 | 147.27109 | 36271 ft | 451 kts | 116° |
| 2026-04-16 11:01 | 12.39623 | 147.30057 | 36445 ft | 452 kts | 115° |
| 2026-04-16 11:02 | 12.38377 | 147.33010 | 36631 ft | 452 kts | 117° |
| 2026-04-16 11:02 | 12.37145 | 147.35939 | 36747 ft | 446 kts | 115° |
| 2026-04-16 11:02 | 12.34715 | 147.41714 | 36799 ft | 442 kts | 116° |
| 2026-04-16 11:03 | 12.32266 | 147.47523 | 36805 ft | 448 kts | 114° |
| 2026-04-16 11:04 | 12.28534 | 147.56361 | 36803 ft | 455 kts | 116° |
| 2026-04-16 11:04 | 12.26019 | 147.62313 | 36811 ft | 455 kts | 115° |
| 2026-04-16 11:05 | 12.23527 | 147.68217 | 36800 ft | 449 kts | 115° |
| 2026-04-16 11:05 | 12.21061 | 147.74055 | 36800 ft | 445 kts | 115° |
| 2026-04-16 11:06 | 12.18606 | 147.79858 | 36809 ft | 446 kts | 115° |
| 2026-04-16 11:06 | 12.16129 | 147.85701 | 36814 ft | 450 kts | 115° |
| 2026-04-16 11:07 | 12.13631 | 147.91599 | 36811 ft | 454 kts | 116° |
| 2026-04-16 11:07 | 12.11136 | 147.97489 | 36821 ft | 453 kts | 115° |
| 2026-04-16 11:08 | 12.08650 | 148.03345 | 36796 ft | 442 kts | 114° |
| 2026-04-16 11:08 | 12.06204 | 148.09099 | 36820 ft | 441 kts | 114° |
| 2026-04-16 11:09 | 12.03752 | 148.14880 | 36825 ft | 446 kts | 114° |
| 2026-04-16 11:09 | 12.01285 | 148.20680 | 36815 ft | 450 kts | 114° |
| 2026-04-16 11:10 | 11.98789 | 148.26541 | 36816 ft | 447 kts | 115° |
| 2026-04-16 11:10 | 11.96336 | 148.32313 | 36811 ft | 441 kts | 115° |
| 2026-04-16 11:11 | 11.93890 | 148.38052 | 36823 ft | 442 kts | 115° |
| 2026-04-16 11:11 | 11.91425 | 148.43828 | 36832 ft | 445 kts | 115° |
| 2026-04-16 11:12 | 11.88943 | 148.49646 | 36824 ft | 448 kts | 114° |
| 2026-04-16 11:12 | 11.86448 | 148.55490 | 36840 ft | 449 kts | 114° |
| 2026-04-16 11:13 | 11.83953 | 148.61334 | 36830 ft | 448 kts | 114° |
| 2026-04-16 11:13 | 11.81476 | 148.67133 | 36821 ft | 444 kts | 114° |
| 2026-04-16 11:14 | 11.79016 | 148.72888 | 36838 ft | 440 kts | 114° |
| 2026-04-16 11:14 | 11.76566 | 148.78609 | 36842 ft | 440 kts | 114° |
| 2026-04-16 11:15 | 11.74118 | 148.84344 | 36837 ft | 442 kts | 114° |
| 2026-04-16 11:15 | 11.71663 | 148.90101 | 36844 ft | 443 kts | 114° |
| 2026-04-16 11:16 | 11.69202 | 148.95869 | 36834 ft | 444 kts | 114° |
| 2026-04-16 11:16 | 11.66736 | 149.01640 | 36848 ft | 443 kts | 114° |
| 2026-04-16 11:17 | 11.64273 | 149.07405 | 36843 ft | 443 kts | 114° |
| 2026-04-16 11:17 | 11.61830 | 149.13121 | 36837 ft | 442 kts | 114° |
| 2026-04-16 11:18 | 11.59373 | 149.18864 | 36844 ft | 441 kts | 114° |
| 2026-04-16 11:18 | 11.56918 | 149.24598 | 36830 ft | 441 kts | 114° |
| 2026-04-16 11:19 | 11.54463 | 149.30330 | 36843 ft | 441 kts | 114° |
| 2026-04-16 11:19 | 11.52009 | 149.36052 | 36852 ft | 440 kts | 114° |
| 2026-04-16 11:20 | 11.49557 | 149.41769 | 36846 ft | 440 kts | 114° |
| 2026-04-16 11:20 | 11.47102 | 149.47489 | 36849 ft | 440 kts | 114° |
| 2026-04-16 11:21 | 11.44644 | 149.53212 | 36848 ft | 441 kts | 114° |
| 2026-04-16 11:21 | 11.42186 | 149.58932 | 36850 ft | 441 kts | 114° |
| 2026-04-16 11:22 | 11.39721 | 149.64662 | 36865 ft | 441 kts | 114° |
| 2026-04-16 11:22 | 11.37255 | 149.70395 | 36855 ft | 442 kts | 114° |
| 2026-04-16 11:23 | 11.34788 | 149.76124 | 36858 ft | 442 kts | 114° |
| 2026-04-16 11:23 | 11.32320 | 149.81853 | 36856 ft | 441 kts | 114° |
| 2026-04-16 11:24 | 11.29853 | 149.87575 | 36855 ft | 441 kts | 114° |
| 2026-04-16 11:24 | 11.27389 | 149.93287 | 36866 ft | 440 kts | 114° |
| 2026-04-16 11:25 | 11.24928 | 149.98987 | 36854 ft | 440 kts | 114° |
| 2026-04-16 11:25 | 11.22470 | 150.04680 | 36862 ft | 439 kts | 114° |
| 2026-04-16 11:26 | 11.20013 | 150.10364 | 36864 ft | 438 kts | 114° |
| 2026-04-16 11:26 | 11.17575 | 150.16004 | 36858 ft | 438 kts | 114° |
| 2026-04-16 11:27 | 11.15121 | 150.21674 | 36873 ft | 437 kts | 114° |
| 2026-04-16 11:27 | 11.12666 | 150.27344 | 36864 ft | 438 kts | 114° |
| 2026-04-16 11:28 | 11.10212 | 150.33009 | 36869 ft | 438 kts | 114° |
| 2026-04-16 11:28 | 11.07756 | 150.38676 | 36869 ft | 438 kts | 114° |
| 2026-04-16 11:29 | 11.05296 | 150.44347 | 36870 ft | 438 kts | 114° |
| 2026-04-16 11:29 | 11.02836 | 150.50017 | 36874 ft | 438 kts | 113° |
| 2026-04-16 11:30 | 11.00372 | 150.55691 | 36873 ft | 438 kts | 113° |
| 2026-04-16 11:30 | 10.97906 | 150.61367 | 36878 ft | 438 kts | 113° |
| 2026-04-16 11:31 | 10.95438 | 150.67042 | 36879 ft | 439 kts | 113° |
| 2026-04-16 11:31 | 10.92967 | 150.72723 | 36875 ft | 439 kts | 113° |
| 2026-04-16 11:32 | 10.90496 | 150.78401 | 36881 ft | 439 kts | 113° |
| 2026-04-16 11:32 | 10.88022 | 150.84080 | 36879 ft | 439 kts | 113° |
| 2026-04-16 11:33 | 10.85545 | 150.89764 | 36885 ft | 439 kts | 113° |
| 2026-04-16 11:33 | 10.83068 | 150.95445 | 36884 ft | 440 kts | 113° |
| 2026-04-16 11:34 | 10.80588 | 151.01129 | 36882 ft | 440 kts | 113° |
| 2026-04-16 11:34 | 10.78107 | 151.06811 | 36883 ft | 440 kts | 114° |
| 2026-04-16 11:35 | 10.75625 | 151.12494 | 36889 ft | 440 kts | 114° |
| 2026-04-16 11:35 | 10.73158 | 151.18139 | 36884 ft | 440 kts | 114° |
| 2026-04-16 11:36 | 10.70675 | 151.23817 | 36888 ft | 440 kts | 114° |
| 2026-04-16 11:36 | 10.68190 | 151.29497 | 36886 ft | 440 kts | 114° |
| 2026-04-16 11:37 | 10.65705 | 151.35173 | 36888 ft | 439 kts | 114° |
| 2026-04-16 11:37 | 10.63220 | 151.40846 | 36887 ft | 439 kts | 114° |
| 2026-04-16 11:38 | 10.60732 | 151.46521 | 36897 ft | 439 kts | 114° |
| 2026-04-16 11:38 | 10.58248 | 151.52185 | 36893 ft | 439 kts | 114° |
| 2026-04-16 11:39 | 10.55763 | 151.57848 | 36893 ft | 438 kts | 114° |
| 2026-04-16 11:39 | 10.53281 | 151.63501 | 36891 ft | 438 kts | 114° |
| 2026-04-16 11:40 | 10.50799 | 151.69151 | 36892 ft | 437 kts | 114° |
| 2026-04-16 11:40 | 10.48321 | 151.74788 | 36892 ft | 437 kts | 114° |
| 2026-04-16 11:41 | 10.45845 | 151.80419 | 36892 ft | 436 kts | 114° |
| 2026-04-16 11:41 | 10.43370 | 151.86042 | 36894 ft | 436 kts | 114° |
| 2026-04-16 11:42 | 10.40895 | 151.91664 | 36893 ft | 436 kts | 114° |
| 2026-04-16 11:42 | 10.38420 | 151.97283 | 36890 ft | 436 kts | 114° |
| 2026-04-16 11:43 | 10.35945 | 152.02897 | 36896 ft | 436 kts | 114° |
| 2026-04-16 11:43 | 10.33481 | 152.08484 | 36895 ft | 436 kts | 114° |
| 2026-04-16 11:44 | 10.30999 | 152.14110 | 36894 ft | 437 kts | 114° |
| 2026-04-16 11:44 | 10.28512 | 152.19742 | 36900 ft | 437 kts | 114° |
| 2026-04-16 11:45 | 10.26022 | 152.25378 | 36899 ft | 438 kts | 114° |
| 2026-04-16 11:45 | 10.23527 | 152.31023 | 36898 ft | 438 kts | 114° |
| 2026-04-16 11:46 | 10.21030 | 152.36668 | 36899 ft | 439 kts | 114° |
| 2026-04-16 11:46 | 10.18531 | 152.42318 | 36898 ft | 439 kts | 114° |
| 2026-04-16 11:47 | 10.16030 | 152.47967 | 36898 ft | 439 kts | 114° |
| 2026-04-16 11:47 | 10.13529 | 152.53613 | 36902 ft | 439 kts | 114° |
| 2026-04-16 11:48 | 10.11025 | 152.59262 | 36904 ft | 439 kts | 114° |
| 2026-04-16 11:48 | 10.08519 | 152.64913 | 36905 ft | 439 kts | 114° |
| 2026-04-16 11:49 | 10.06015 | 152.70558 | 36905 ft | 439 kts | 114° |
| 2026-04-16 11:49 | 10.03933 | 152.75248 | 36899 ft | 439 kts | 114° |
| 2026-04-16 11:50 | 10.01005 | 152.81840 | 36900 ft | 438 kts | 114° |
| 2026-04-16 11:50 | 9.98925 | 152.86520 | 36902 ft | 438 kts | 114° |
| 2026-04-16 11:51 | 9.96419 | 152.92158 | 36910 ft | 438 kts | 114° |
| 2026-04-16 11:51 | 9.93914 | 152.97789 | 36910 ft | 438 kts | 114° |
| 2026-04-16 11:52 | 9.91407 | 153.03423 | 36908 ft | 438 kts | 114° |
| 2026-04-16 11:52 | 9.88899 | 153.09054 | 36911 ft | 438 kts | 114° |
| 2026-04-16 11:53 | 9.86388 | 153.14691 | 36906 ft | 439 kts | 114° |
| 2026-04-16 11:53 | 9.83875 | 153.20327 | 36912 ft | 439 kts | 114° |
| 2026-04-16 11:54 | 9.81359 | 153.25969 | 36910 ft | 439 kts | 114° |
| 2026-04-16 11:54 | 9.78843 | 153.31608 | 36911 ft | 439 kts | 114° |
| 2026-04-16 11:55 | 9.76324 | 153.37250 | 36911 ft | 439 kts | 114° |
| 2026-04-16 11:55 | 9.73804 | 153.42893 | 36912 ft | 439 kts | 114° |
| 2026-04-16 11:56 | 9.71281 | 153.48538 | 36912 ft | 439 kts | 114° |
| 2026-04-16 11:56 | 9.68758 | 153.54179 | 36912 ft | 439 kts | 114° |
| 2026-04-16 11:57 | 9.66238 | 153.59812 | 36910 ft | 439 kts | 114° |
| 2026-04-16 11:57 | 9.63731 | 153.65414 | 36911 ft | 439 kts | 114° |
| 2026-04-16 11:58 | 9.61190 | 153.71087 | 36915 ft | 439 kts | 114° |
| 2026-04-16 11:58 | 9.58667 | 153.76719 | 36915 ft | 439 kts | 114° |
| 2026-04-16 11:59 | 9.56143 | 153.82350 | 36920 ft | 439 kts | 114° |
| 2026-04-16 11:59 | 9.53618 | 153.87980 | 36917 ft | 439 kts | 114° |
| 2026-04-16 12:00 | 9.51107 | 153.93575 | 36920 ft | 439 kts | 114° |
| 2026-04-16 12:00 | 9.48581 | 153.99203 | 36920 ft | 439 kts | 114° |
| 2026-04-16 12:01 | 9.46054 | 154.04828 | 36919 ft | 439 kts | 114° |
| 2026-04-16 12:01 | 9.43526 | 154.10456 | 36917 ft | 439 kts | 114° |
| 2026-04-16 12:02 | 9.39675 | 154.18856 | 36914 ft | 439 kts | 118° |
| 2026-04-16 12:02 | 9.36316 | 154.24025 | 36916 ft | 440 kts | 123° |
| 2026-04-16 12:03 | 9.32840 | 154.29114 | 36919 ft | 440 kts | 123° |
| 2026-04-16 12:03 | 9.29383 | 154.34217 | 36923 ft | 440 kts | 123° |
| 2026-04-16 12:04 | 9.25945 | 154.39343 | 36918 ft | 440 kts | 123° |
| 2026-04-16 12:04 | 9.22514 | 154.44477 | 36926 ft | 440 kts | 123° |
| 2026-04-16 12:05 | 9.19080 | 154.49616 | 36922 ft | 441 kts | 123° |
| 2026-04-16 12:05 | 9.15644 | 154.54757 | 36925 ft | 441 kts | 123° |
| 2026-04-16 12:06 | 9.12202 | 154.59902 | 36927 ft | 442 kts | 123° |
| 2026-04-16 12:06 | 9.08777 | 154.65020 | 36927 ft | 442 kts | 123° |
| 2026-04-16 12:07 | 9.05331 | 154.70167 | 36924 ft | 442 kts | 122° |
| 2026-04-16 12:07 | 9.01882 | 154.75316 | 36924 ft | 442 kts | 122° |
| 2026-04-16 12:08 | 8.98431 | 154.80466 | 36924 ft | 442 kts | 122° |
| 2026-04-16 12:08 | 8.94985 | 154.85607 | 36926 ft | 442 kts | 122° |
| 2026-04-16 12:09 | 8.91538 | 154.90747 | 36933 ft | 441 kts | 122° |
| 2026-04-16 12:09 | 8.88093 | 154.95882 | 36925 ft | 441 kts | 122° |
| 2026-04-16 12:10 | 8.84657 | 155.01002 | 36922 ft | 440 kts | 122° |
| 2026-04-16 12:10 | 8.81223 | 155.06117 | 36920 ft | 439 kts | 122° |
| 2026-04-16 12:11 | 8.77799 | 155.11215 | 36925 ft | 438 kts | 122° |
| 2026-04-16 12:11 | 8.74381 | 155.16302 | 36925 ft | 437 kts | 122° |
| 2026-04-16 12:12 | 8.70970 | 155.21377 | 36924 ft | 436 kts | 122° |
| 2026-04-16 12:12 | 8.67560 | 155.26447 | 36924 ft | 436 kts | 122° |
| 2026-04-16 12:13 | 8.64155 | 155.31511 | 36924 ft | 436 kts | 122° |
| 2026-04-16 12:13 | 8.60747 | 155.36576 | 36927 ft | 436 kts | 122° |
| 2026-04-16 12:14 | 8.57362 | 155.41604 | 36924 ft | 436 kts | 122° |
| 2026-04-16 12:14 | 8.53948 | 155.46673 | 36923 ft | 436 kts | 122° |
| 2026-04-16 12:15 | 8.50536 | 155.51738 | 36923 ft | 436 kts | 122° |
| 2026-04-16 12:15 | 8.47119 | 155.56808 | 36925 ft | 437 kts | 122° |
| 2026-04-16 12:16 | 8.43700 | 155.61880 | 36926 ft | 437 kts | 122° |
| 2026-04-16 12:16 | 8.40278 | 155.66953 | 36927 ft | 437 kts | 122° |
| 2026-04-16 12:17 | 8.36856 | 155.72026 | 36922 ft | 437 kts | 122° |
| 2026-04-16 12:17 | 8.33430 | 155.77103 | 36923 ft | 437 kts | 122° |
| 2026-04-16 12:18 | 8.30005 | 155.82175 | 36924 ft | 437 kts | 122° |
| 2026-04-16 12:18 | 8.26578 | 155.87249 | 36920 ft | 437 kts | 122° |
| 2026-04-16 12:19 | 8.23152 | 155.92320 | 36924 ft | 437 kts | 122° |
| 2026-04-16 12:19 | 8.19729 | 155.97384 | 36923 ft | 437 kts | 122° |
| 2026-04-16 12:20 | 8.16308 | 156.02444 | 36924 ft | 436 kts | 122° |
| 2026-04-16 12:20 | 8.12888 | 156.07501 | 36923 ft | 436 kts | 122° |
| 2026-04-16 12:21 | 8.09469 | 156.12554 | 36928 ft | 436 kts | 122° |
| 2026-04-16 12:21 | 8.06090 | 156.17544 | 36905 ft | 419 kts | 122° |
| 2026-04-16 12:22 | 8.04468 | 156.19937 | 36907 ft | 406 kts | 122° |
| 2026-04-16 12:22 | 8.02900 | 156.22250 | 36903 ft | 393 kts | 122° |
| 2026-04-16 12:22 | 8.01386 | 156.24482 | 36902 ft | 379 kts | 122° |
| 2026-04-16 12:22 | 7.99908 | 156.26665 | 36924 ft | 377 kts | 122° |
| 2026-04-16 12:23 | 7.96934 | 156.31062 | 36945 ft | 387 kts | 122° |
| 2026-04-16 12:23 | 7.93859 | 156.35606 | 36944 ft | 397 kts | 122° |
| 2026-04-16 12:24 | 7.90721 | 156.40235 | 36935 ft | 401 kts | 122° |
| 2026-04-16 12:24 | 7.87559 | 156.44896 | 36924 ft | 401 kts | 122° |
| 2026-04-16 12:25 | 7.84448 | 156.49479 | 36916 ft | 391 kts | 122° |
| 2026-04-16 12:25 | 7.81377 | 156.54005 | 36934 ft | 392 kts | 122° |
| 2026-04-16 12:26 | 7.78295 | 156.58547 | 36935 ft | 393 kts | 122° |
| 2026-04-16 12:26 | 7.75207 | 156.63096 | 36932 ft | 394 kts | 122° |
| 2026-04-16 12:27 | 7.72122 | 156.67638 | 36719 ft | 389 kts | 122° |
| 2026-04-16 12:27 | 7.70600 | 156.69878 | 36191 ft | 390 kts | 122° |
| 2026-04-16 12:27 | 7.69044 | 156.72170 | 35196 ft | 404 kts | 123° |
| 2026-04-16 12:28 | 7.67420 | 156.74565 | 33998 ft | 424 kts | 123° |
| 2026-04-16 12:28 | 7.65731 | 156.77051 | 33082 ft | 433 kts | 123° |
| 2026-04-16 12:28 | 7.64032 | 156.79550 | 32615 ft | 430 kts | 123° |
| 2026-04-16 12:28 | 7.62352 | 156.82018 | 32286 ft | 424 kts | 123° |
| 2026-04-16 12:29 | 7.60695 | 156.84453 | 31896 ft | 420 kts | 123° |
| 2026-04-16 12:29 | 7.59048 | 156.86873 | 31431 ft | 418 kts | 123° |
| 2026-04-16 12:29 | 7.57407 | 156.89285 | 30938 ft | 417 kts | 123° |
| 2026-04-16 12:29 | 7.55768 | 156.91694 | 30493 ft | 416 kts | 123° |
| 2026-04-16 12:30 | 7.54138 | 156.94089 | 30075 ft | 413 kts | 123° |
| 2026-04-16 12:30 | 7.52518 | 156.96470 | 29606 ft | 411 kts | 123° |
| 2026-04-16 12:30 | 7.50928 | 156.98806 | 29142 ft | 408 kts | 123° |
| 2026-04-16 12:30 | 7.49327 | 157.01159 | 28661 ft | 406 kts | 123° |
| 2026-04-16 12:31 | 7.47733 | 157.03499 | 28064 ft | 406 kts | 123° |
| 2026-04-16 12:31 | 7.46115 | 157.05878 | 27098 ft | 417 kts | 122° |
| 2026-04-16 12:31 | 7.44464 | 157.08304 | 26361 ft | 421 kts | 122° |
| 2026-04-16 12:31 | 7.42812 | 157.10731 | 25859 ft | 418 kts | 122° |
| 2026-04-16 12:32 | 7.41179 | 157.13125 | 25359 ft | 411 kts | 122° |
| 2026-04-16 12:32 | 7.39565 | 157.15492 | 24708 ft | 409 kts | 122° |
| 2026-04-16 12:32 | 7.37957 | 157.17852 | 24049 ft | 409 kts | 122° |
| 2026-04-16 12:32 | 7.36348 | 157.20212 | 23399 ft | 408 kts | 122° |
| 2026-04-16 12:33 | 7.34750 | 157.22557 | 22735 ft | 404 kts | 122° |
| 2026-04-16 12:33 | 7.33170 | 157.24875 | 22170 ft | 398 kts | 122° |
| 2026-04-16 12:33 | 7.31615 | 157.27154 | 21585 ft | 393 kts | 122° |
| 2026-04-16 12:33 | 7.30072 | 157.29417 | 20982 ft | 390 kts | 122° |
| 2026-04-16 12:34 | 7.28544 | 157.31656 | 20382 ft | 387 kts | 122° |
| 2026-04-16 12:34 | 7.27029 | 157.33877 | 19794 ft | 383 kts | 122° |
| 2026-04-16 12:34 | 7.25525 | 157.36082 | 19226 ft | 380 kts | 122° |
| 2026-04-16 12:34 | 7.24037 | 157.38264 | 18687 ft | 377 kts | 122° |
| 2026-04-16 12:35 | 7.22559 | 157.40430 | 18133 ft | 374 kts | 122° |
| 2026-04-16 12:35 | 7.21094 | 157.42578 | 17509 ft | 371 kts | 122° |
| 2026-04-16 12:35 | 7.19639 | 157.44710 | 16880 ft | 368 kts | 122° |
| 2026-04-16 12:35 | 7.18192 | 157.46831 | 16273 ft | 366 kts | 123° |
| 2026-04-16 12:36 | 7.16754 | 157.48938 | 15679 ft | 364 kts | 123° |
| 2026-04-16 12:36 | 7.15323 | 157.51034 | 15105 ft | 362 kts | 123° |
| 2026-04-16 12:36 | 7.13898 | 157.53121 | 14515 ft | 361 kts | 123° |
| 2026-04-16 12:36 | 7.12482 | 157.55195 | 13940 ft | 360 kts | 123° |
| 2026-04-16 12:37 | 7.11089 | 157.57235 | 13412 ft | 356 kts | 124° |
| 2026-04-16 12:37 | 7.09689 | 157.59284 | 12822 ft | 354 kts | 124° |
| 2026-04-16 12:37 | 7.08279 | 157.61348 | 12244 ft | 352 kts | 124° |
| 2026-04-16 12:37 | 7.06917 | 157.63341 | 11698 ft | 349 kts | 124° |
| 2026-04-16 12:38 | 7.05546 | 157.65348 | 11156 ft | 347 kts | 124° |
| 2026-04-16 12:38 | 7.04181 | 157.67346 | 10619 ft | 345 kts | 124° |
| 2026-04-16 12:38 | 7.02823 | 157.69332 | 10071 ft | 344 kts | 124° |
| 2026-04-16 12:38 | 7.01356 | 157.71212 | 9670 ft | 337 kts | 139° |
| 2026-04-16 12:39 | 6.99424 | 157.72394 | 9584 ft | 318 kts | 162° |
| 2026-04-16 12:39 | 6.97323 | 157.72763 | 9446 ft | 302 kts | 182° |
| 2026-04-16 12:39 | 6.95289 | 157.72410 | 9078 ft | 294 kts | 202° |
| 2026-04-16 12:39 | 6.93519 | 157.71425 | 8631 ft | 290 kts | 221° |
| 2026-04-16 12:40 | 6.92569 | 157.70486 | 8337 ft | 288 kts | 233° |
| 2026-04-16 12:40 | 6.91580 | 157.68761 | 7934 ft | 283 kts | 251° |
| 2026-04-16 12:40 | 6.91195 | 157.66811 | 7512 ft | 280 kts | 270° |
| 2026-04-16 12:40 | 6.91353 | 157.64930 | 7398 ft | 267 kts | 283° |
| 2026-04-16 12:41 | 6.92003 | 157.63223 | 7226 ft | 263 kts | 306° |
| 2026-04-16 12:41 | 6.93380 | 157.62043 | 7042 ft | 262 kts | 334° |
| 2026-04-16 12:41 | 6.95144 | 157.61637 | 6920 ft | 263 kts | 1° |
| 2026-04-16 12:41 | 6.96918 | 157.62069 | 6806 ft | 266 kts | 27° |
| 2026-04-16 12:42 | 6.98339 | 157.63264 | 6695 ft | 270 kts | 52° |
| 2026-04-16 12:42 | 6.99340 | 157.64878 | 6608 ft | 274 kts | 59° |
| 2026-04-16 12:42 | 7.00288 | 157.66547 | 6487 ft | 275 kts | 59° |
| 2026-04-16 12:42 | 7.01238 | 157.68217 | 6369 ft | 275 kts | 59° |
| 2026-04-16 12:43 | 7.02084 | 157.69945 | 6224 ft | 277 kts | 75° |
| 2026-04-16 12:43 | 7.02187 | 157.71880 | 6060 ft | 278 kts | 94° |
| 2026-04-16 12:43 | 7.02005 | 157.73813 | 5810 ft | 276 kts | 96° |
| 2026-04-16 12:43 | 7.01795 | 157.75727 | 5561 ft | 274 kts | 96° |
| 2026-04-16 12:44 | 7.01585 | 157.77625 | 5319 ft | 272 kts | 96° |
| 2026-04-16 12:44 | 7.01381 | 157.79506 | 5081 ft | 269 kts | 96° |
| 2026-04-16 12:44 | 7.01183 | 157.81370 | 4844 ft | 267 kts | 96° |
| 2026-04-16 12:44 | 7.00989 | 157.83225 | 4604 ft | 265 kts | 96° |
| 2026-04-16 12:45 | 7.00799 | 157.85065 | 4355 ft | 263 kts | 96° |
| 2026-04-16 12:45 | 7.00612 | 157.86892 | 4109 ft | 261 kts | 96° |
| 2026-04-16 12:45 | 7.00428 | 157.88703 | 3868 ft | 259 kts | 96° |
| 2026-04-16 12:45 | 7.00245 | 157.90505 | 3633 ft | 258 kts | 96° |
| 2026-04-16 12:46 | 7.00064 | 157.92293 | 3387 ft | 256 kts | 96° |
| 2026-04-16 12:46 | 6.99884 | 157.94069 | 3155 ft | 254 kts | 97° |
| 2026-04-16 12:46 | 6.99705 | 157.95834 | 2914 ft | 253 kts | 96° |
| 2026-04-16 12:46 | 6.99529 | 157.97580 | 2709 ft | 247 kts | 97° |
| 2026-04-16 12:47 | 6.99360 | 157.99259 | 2520 ft | 237 kts | 97° |
| 2026-04-16 12:47 | 6.99196 | 158.00875 | 2355 ft | 227 kts | 97° |
| 2026-04-16 12:47 | 6.99040 | 158.02419 | 2227 ft | 216 kts | 97° |
| 2026-04-16 12:47 | 6.98892 | 158.03878 | 2112 ft | 204 kts | 97° |
| 2026-04-16 12:48 | 6.98755 | 158.05241 | 1971 ft | 192 kts | 97° |
| 2026-04-16 12:48 | 6.98624 | 158.06532 | 1913 ft | 178 kts | 97° |
| 2026-04-16 12:48 | 6.98565 | 158.07772 | 1940 ft | 180 kts | 92° |
| 2026-04-16 12:48 | 6.98565 | 158.09030 | 1932 ft | 177 kts | 91° |
| 2026-04-16 12:49 | 6.98562 | 158.10234 | 1934 ft | 168 kts | 91° |
| 2026-04-16 12:49 | 6.98557 | 158.11416 | 1769 ft | 169 kts | 92° |
| 2026-04-16 12:49 | 6.98552 | 158.12559 | 1540 ft | 157 kts | 91° |
| 2026-04-16 12:49 | 6.98548 | 158.13612 | 1359 ft | 148 kts | 92° |
| 2026-04-16 12:50 | 6.98542 | 158.14632 | 1181 ft | 145 kts | 92° |
| 2026-04-16 12:50 | 6.98538 | 158.15652 | 968 ft | 145 kts | 92° |
| 2026-04-16 12:50 | 6.98524 | 158.16647 | 769 ft | 141 kts | 92° |
| 2026-04-16 12:50 | 6.98533 | 158.17645 | 594 ft | 143 kts | 91° |
| 2026-04-16 12:51 | 6.98525 | 158.18642 | 373 ft | 142 kts | 91° |
| 2026-04-16 12:51 | 6.98518 | 158.19638 | 144 ft | 141 kts | 91° |
| 2026-04-16 12:51 | 6.98512 | 158.20604 | 17 ft | 128 kts | 90° |
| 2026-04-16 12:51 | 6.98510 | 158.21346 | 16 ft | 85 kts | 90° |
| 2026-04-16 12:52 | 6.98508 | 158.21714 | 16 ft | 26 kts | 90° |
| 2026-04-16 12:52 | 6.98475 | 158.21812 | 16 ft | 14 kts | 120° |
| 2026-04-16 12:52 | 6.98504 | 158.21848 | 18 ft | 7 kts | 299° |
| 2026-04-16 12:52 | 6.98507 | 158.21786 | 17 ft | 11 kts | 270° |
| 2026-04-16 12:53 | 6.98507 | 158.21696 | 16 ft | 15 kts | 270° |
| 2026-04-16 12:53 | 6.98508 | 158.21572 | 17 ft | 21 kts | 270° |
| 2026-04-16 12:53 | 6.98509 | 158.21402 | 16 ft | 26 kts | 270° |
| 2026-04-16 12:53 | 6.98509 | 158.21225 | 16 ft | 24 kts | 270° |
| 2026-04-16 12:54 | 6.98510 | 158.21060 | 17 ft | 23 kts | 270° |
| 2026-04-16 12:54 | 6.98511 | 158.20900 | 16 ft | 24 kts | 270° |
| 2026-04-16 12:54 | 6.98512 | 158.20725 | 16 ft | 27 kts | 270° |
| 2026-04-16 12:54 | 6.98513 | 158.20537 | 17 ft | 26 kts | 270° |
| 2026-04-16 12:55 | 6.98513 | 158.20398 | 16 ft | 11 kts | 265° |
| 2026-04-16 12:55 | 6.98459 | 158.20359 | 17 ft | 10 kts | 184° |
| 2026-04-16 12:55 | 6.98386 | 158.20358 | 17 ft | 11 kts | 180° |
| 2026-04-16 12:55 | 6.98298 | 158.20357 | 17 ft | 14 kts | 184° |
| 2026-04-16 12:56 | 6.98217 | 158.20330 | 17 ft | 10 kts | 179° |
| 2026-04-16 12:56 | 6.98195 | 158.20331 | 18 ft | 0 kts | 178° |